Accueil
METAR-TAF:

METAR-TAF

Aéroports :

Gênes, Italie

Aéroport de Gênes-Christophe Colomb

latitude: 44-25N, longitude: 008-51E, altitude: 2 m

Observation

Le bulletin a été fait il y a 27 minutes, à 16:20 UTC
Vent 6 kt de sud/sud-ouest, variant entre sud et ouest/sud-ouest
Température 25°C
Humidité 47%
Pression 1016 hPa
Visibilité 10 km ou plus
pas de nuages en-dessous de 1500 mètres et pas de cumulonimbus.

METAR: LIMJ 221620Z 21006KT 180V240 CAVOK 25/13 Q1016

Heure: 18:47 (16:47 UTC)

Prévision

Le bulletin a été fait il y a 5 heures et 47 minutes, à 11:00 UTC
Prévision valable du 22 à 12 UTC au 23 à 12 UTC
Vent 5 kt de direction variable
Visibilité 10 km ou plus
pas de nuages en-dessous de 1500 mètres et pas de cumulonimbus.

TAF: LIMJ 221100Z 2212/2312 VRB05KT CAVOK

Observations et prévisions météorologiques de plus de 4000 aéroports (messages METAR et TAF).

Les stations disponibles sont représentées par des disques jaunes et rouges sur la carte.

Passer la souris dessus pour voir le nom de la station.

Cliquer dessus pour voir les observations et prévisions météorologiques.

Pour changer de carte: cliquez sur les boutons verts avec une croix noire pour zoomer, sur le bouton vert avec un tiret pour effectuer un zoom arrière, ou sur les flèches vertes pour les cartes adjacentes.


METAR-TAF: